sensor_id;sensor_type;location;lat;lon;timestamp;temperature;humidity
16523;DHT22;19889;52.546;13.348;2024-03-29T00:02:13;10.80;99.90
16523;DHT22;19889;52.546;13.348;2024-03-29T00:04:39;10.80;99.90
16523;DHT22;19889;52.546;13.348;2024-03-29T00:07:05;10.80;99.90
16523;DHT22;19889;52.546;13.348;2024-03-29T00:09:32;10.80;99.90
16523;DHT22;19889;52.546;13.348;2024-03-29T00:11:58;10.70;99.90
16523;DHT22;19889;52.546;13.348;2024-03-29T00:14:24;10.70;99.90
16523;DHT22;19889;52.546;13.348;2024-03-29T00:16:50;10.70;99.90
16523;DHT22;19889;52.546;13.348;2024-03-29T00:19:18;10.70;99.90
16523;DHT22;19889;52.546;13.348;2024-03-29T00:21:44;10.80;99.90
16523;DHT22;19889;52.546;13.348;2024-03-29T00:24:10;10.80;99.90
16523;DHT22;19889;52.546;13.348;2024-03-29T00:26:36;10.90;99.90
16523;DHT22;19889;52.546;13.348;2024-03-29T00:29:02;11.00;99.90
16523;DHT22;19889;52.546;13.348;2024-03-29T00:31:28;11.00;99.90
16523;DHT22;19889;52.546;13.348;2024-03-29T00:33:54;11.00;99.90
16523;DHT22;19889;52.546;13.348;2024-03-29T00:36:22;11.10;99.90
16523;DHT22;19889;52.546;13.348;2024-03-29T00:38:48;11.10;99.90
16523;DHT22;19889;52.546;13.348;2024-03-29T00:41:14;11.10;99.90
16523;DHT22;19889;52.546;13.348;2024-03-29T00:43:40;11.20;99.90
16523;DHT22;19889;52.546;13.348;2024-03-29T00:46:07;11.10;99.90
16523;DHT22;19889;52.546;13.348;2024-03-29T00:48:33;13.40;99.90
16523;DHT22;19889;52.546;13.348;2024-03-29T00:50:59;11.10;99.90
16523;DHT22;19889;52.546;13.348;2024-03-29T00:53:26;11.00;99.90
16523;DHT22;19889;52.546;13.348;2024-03-29T00:55:53;11.00;99.90
16523;DHT22;19889;52.546;13.348;2024-03-29T00:58:19;10.90;99.90
16523;DHT22;19889;52.546;13.348;2024-03-29T01:00:45;10.90;99.90
16523;DHT22;19889;52.546;13.348;2024-03-29T01:03:11;10.80;99.90
16523;DHT22;19889;52.546;13.348;2024-03-29T01:05:37;10.70;99.90
16523;DHT22;19889;52.546;13.348;2024-03-29T01:08:04;10.60;99.90
16523;DHT22;19889;52.546;13.348;2024-03-29T01:10:32;10.60;99.90
16523;DHT22;19889;52.546;13.348;2024-03-29T01:12:58;10.50;99.90
16523;DHT22;19889;52.546;13.348;2024-03-29T01:15:24;10.40;99.90
16523;DHT22;19889;52.546;13.348;2024-03-29T01:17:50;10.40;99.90
16523;DHT22;19889;52.546;13.348;2024-03-29T01:20:16;10.30;99.90
16523;DHT22;19889;52.546;13.348;2024-03-29T01:22:42;10.30;99.90
16523;DHT22;19889;52.546;13.348;2024-03-29T01:25:09;10.30;99.90
16523;DHT22;19889;52.546;13.348;2024-03-29T01:27:36;10.20;99.90
16523;DHT22;19889;52.546;13.348;2024-03-29T01:30:03;10.20;99.90
16523;DHT22;19889;52.546;13.348;2024-03-29T01:32:29;10.10;99.90
16523;DHT22;19889;52.546;13.348;2024-03-29T01:34:55;10.10;99.90
16523;DHT22;19889;52.546;13.348;2024-03-29T01:37:21;10.10;99.90
16523;DHT22;19889;52.546;13.348;2024-03-29T01:39:47;10.00;99.90
16523;DHT22;19889;52.546;13.348;2024-03-29T01:42:13;10.00;99.90
16523;DHT22;19889;52.546;13.348;2024-03-29T01:44:41;10.00;99.90
16523;DHT22;19889;52.546;13.348;2024-03-29T01:47:08;10.00;99.90
16523;DHT22;19889;52.546;13.348;2024-03-29T01:49:35;10.00;99.90
16523;DHT22;19889;52.546;13.348;2024-03-29T01:52:03;10.00;99.90
16523;DHT22;19889;52.546;13.348;2024-03-29T01:54:31;9.90;99.90
16523;DHT22;19889;52.546;13.348;2024-03-29T01:56:59;10.00;99.90
16523;DHT22;19889;52.546;13.348;2024-03-29T01:59:26;9.90;99.90
16523;DHT22;19889;52.546;13.348;2024-03-29T02:01:56;9.90;99.90
16523;DHT22;19889;52.546;13.348;2024-03-29T02:04:23;9.90;99.90
16523;DHT22;19889;52.546;13.348;2024-03-29T02:06:51;9.90;99.90
16523;DHT22;19889;52.546;13.348;2024-03-29T02:09:18;9.90;99.90
16523;DHT22;19889;52.546;13.348;2024-03-29T02:11:45;9.80;99.90
16523;DHT22;19889;52.546;13.348;2024-03-29T02:14:13;9.90;99.90
16523;DHT22;19889;52.546;13.348;2024-03-29T02:16:39;9.90;99.90
16523;DHT22;19889;52.546;13.348;2024-03-29T02:19:09;9.80;99.90
16523;DHT22;19889;52.546;13.348;2024-03-29T02:21:37;9.80;99.90
16523;DHT22;19889;52.546;13.348;2024-03-29T02:24:10;9.70;99.90
16523;DHT22;19889;52.546;13.348;2024-03-29T02:26:40;9.70;99.90
16523;DHT22;19889;52.546;13.348;2024-03-29T02:29:08;9.70;99.90
16523;DHT22;19889;52.546;13.348;2024-03-29T02:31:35;9.70;99.90
16523;DHT22;19889;52.546;13.348;2024-03-29T02:34:02;9.70;99.90
16523;DHT22;19889;52.546;13.348;2024-03-29T02:36:29;9.70;99.90
16523;DHT22;19889;52.546;13.348;2024-03-29T02:38:56;9.60;99.90
16523;DHT22;19889;52.546;13.348;2024-03-29T02:41:25;9.60;99.90
16523;DHT22;19889;52.546;13.348;2024-03-29T02:43:56;9.60;99.90
16523;DHT22;19889;52.546;13.348;2024-03-29T02:46:23;9.60;99.90
16523;DHT22;19889;52.546;13.348;2024-03-29T02:48:50;9.50;99.90
16523;DHT22;19889;52.546;13.348;2024-03-29T02:51:16;9.50;99.90
16523;DHT22;19889;52.546;13.348;2024-03-29T02:53:43;9.60;99.90
16523;DHT22;19889;52.546;13.348;2024-03-29T02:56:09;9.50;99.90
16523;DHT22;19889;52.546;13.348;2024-03-29T02:58:38;9.50;99.90
16523;DHT22;19889;52.546;13.348;2024-03-29T03:01:07;9.50;99.90
16523;DHT22;19889;52.546;13.348;2024-03-29T03:03:35;9.50;99.90
16523;DHT22;19889;52.546;13.348;2024-03-29T03:06:01;9.40;99.90
16523;DHT22;19889;52.546;13.348;2024-03-29T03:08:29;9.40;99.90
16523;DHT22;19889;52.546;13.348;2024-03-29T03:13:43;9.40;99.90
16523;DHT22;19889;52.546;13.348;2024-03-29T03:16:10;9.40;99.90
16523;DHT22;19889;52.546;13.348;2024-03-29T03:18:37;9.40;99.90
16523;DHT22;19889;52.546;13.348;2024-03-29T03:21:05;9.30;99.90
16523;DHT22;19889;52.546;13.348;2024-03-29T03:23:31;9.30;99.90
16523;DHT22;19889;52.546;13.348;2024-03-29T03:26:00;9.30;99.90
16523;DHT22;19889;52.546;13.348;2024-03-29T03:28:26;9.30;99.90
16523;DHT22;19889;52.546;13.348;2024-03-29T03:30:54;9.20;99.90
16523;DHT22;19889;52.546;13.348;2024-03-29T03:33:21;9.20;99.90
16523;DHT22;19889;52.546;13.348;2024-03-29T03:35:48;9.20;99.90
16523;DHT22;19889;52.546;13.348;2024-03-29T03:38:14;9.20;99.90
16523;DHT22;19889;52.546;13.348;2024-03-29T03:40:41;9.20;99.90
16523;DHT22;19889;52.546;13.348;2024-03-29T03:43:08;9.20;99.90
16523;DHT22;19889;52.546;13.348;2024-03-29T03:45:35;9.10;99.90
16523;DHT22;19889;52.546;13.348;2024-03-29T03:48:04;9.10;99.90
16523;DHT22;19889;52.546;13.348;2024-03-29T03:50:31;9.10;99.90
16523;DHT22;19889;52.546;13.348;2024-03-29T03:52:57;9.00;99.90
16523;DHT22;19889;52.546;13.348;2024-03-29T03:55:25;9.00;99.90
16523;DHT22;19889;52.546;13.348;2024-03-29T03:57:52;9.10;99.90
16523;DHT22;19889;52.546;13.348;2024-03-29T04:00:20;9.00;99.90
16523;DHT22;19889;52.546;13.348;2024-03-29T04:02:48;9.00;99.90
16523;DHT22;19889;52.546;13.348;2024-03-29T04:05:17;9.00;99.90
16523;DHT22;19889;52.546;13.348;2024-03-29T04:07:43;9.00;99.90
16523;DHT22;19889;52.546;13.348;2024-03-29T04:10:10;9.00;99.90
16523;DHT22;19889;52.546;13.348;2024-03-29T04:12:37;9.00;99.90
16523;DHT22;19889;52.546;13.348;2024-03-29T04:15:05;9.00;99.90
16523;DHT22;19889;52.546;13.348;2024-03-29T04:17:31;9.00;99.90
16523;DHT22;19889;52.546;13.348;2024-03-29T04:19:59;9.00;99.90
16523;DHT22;19889;52.546;13.348;2024-03-29T04:22:27;9.00;99.90
16523;DHT22;19889;52.546;13.348;2024-03-29T04:24:55;9.00;99.90
16523;DHT22;19889;52.546;13.348;2024-03-29T04:27:21;9.00;99.90
16523;DHT22;19889;52.546;13.348;2024-03-29T04:29:50;8.90;99.90
16523;DHT22;19889;52.546;13.348;2024-03-29T04:32:17;8.90;99.90
16523;DHT22;19889;52.546;13.348;2024-03-29T04:34:47;8.90;99.90
16523;DHT22;19889;52.546;13.348;2024-03-29T04:37:13;8.90;99.90
16523;DHT22;19889;52.546;13.348;2024-03-29T04:39:42;8.80;99.90
16523;DHT22;19889;52.546;13.348;2024-03-29T04:42:09;8.80;99.90
16523;DHT22;19889;52.546;13.348;2024-03-29T04:44:37;8.80;99.90
16523;DHT22;19889;52.546;13.348;2024-03-29T04:47:04;8.80;99.90
16523;DHT22;19889;52.546;13.348;2024-03-29T04:49:31;8.80;99.90
16523;DHT22;19889;52.546;13.348;2024-03-29T04:52:02;8.80;99.90
16523;DHT22;19889;52.546;13.348;2024-03-29T04:54:29;8.80;99.90
16523;DHT22;19889;52.546;13.348;2024-03-29T04:56:58;8.80;99.90
16523;DHT22;19889;52.546;13.348;2024-03-29T04:59:25;8.70;99.90
16523;DHT22;19889;52.546;13.348;2024-03-29T05:01:52;8.70;99.90
16523;DHT22;19889;52.546;13.348;2024-03-29T05:04:21;8.70;99.90
16523;DHT22;19889;52.546;13.348;2024-03-29T05:06:52;8.70;99.90
16523;DHT22;19889;52.546;13.348;2024-03-29T05:09:19;8.70;99.90
16523;DHT22;19889;52.546;13.348;2024-03-29T05:11:47;8.70;99.90
16523;DHT22;19889;52.546;13.348;2024-03-29T05:14:16;8.70;99.90
16523;DHT22;19889;52.546;13.348;2024-03-29T05:16:44;8.70;99.90
16523;DHT22;19889;52.546;13.348;2024-03-29T05:19:11;8.70;99.90
16523;DHT22;19889;52.546;13.348;2024-03-29T05:21:38;8.70;99.90
16523;DHT22;19889;52.546;13.348;2024-03-29T05:24:06;8.80;99.90
16523;DHT22;19889;52.546;13.348;2024-03-29T05:26:33;8.80;99.90
16523;DHT22;19889;52.546;13.348;2024-03-29T05:29:00;8.80;99.90
16523;DHT22;19889;52.546;13.348;2024-03-29T05:31:31;8.80;99.90
16523;DHT22;19889;52.546;13.348;2024-03-29T05:33:58;8.80;99.90
16523;DHT22;19889;52.546;13.348;2024-03-29T05:36:26;8.80;99.90
16523;DHT22;19889;52.546;13.348;2024-03-29T05:38:53;8.90;99.90
16523;DHT22;19889;52.546;13.348;2024-03-29T05:41:21;8.90;99.90
16523;DHT22;19889;52.546;13.348;2024-03-29T05:43:49;8.90;99.90
16523;DHT22;19889;52.546;13.348;2024-03-29T05:46:16;8.90;99.90
16523;DHT22;19889;52.546;13.348;2024-03-29T05:48:45;8.90;99.90
16523;DHT22;19889;52.546;13.348;2024-03-29T05:51:12;8.90;99.90
16523;DHT22;19889;52.546;13.348;2024-03-29T05:53:39;8.90;99.90
16523;DHT22;19889;52.546;13.348;2024-03-29T05:56:06;8.90;99.90
16523;DHT22;19889;52.546;13.348;2024-03-29T05:58:33;8.90;99.90
16523;DHT22;19889;52.546;13.348;2024-03-29T06:01:01;9.00;99.90
16523;DHT22;19889;52.546;13.348;2024-03-29T06:03:28;9.00;99.90
16523;DHT22;19889;52.546;13.348;2024-03-29T06:05:56;9.10;99.90
16523;DHT22;19889;52.546;13.348;2024-03-29T06:08:23;9.10;99.90
16523;DHT22;19889;52.546;13.348;2024-03-29T06:10:52;9.10;99.90
16523;DHT22;19889;52.546;13.348;2024-03-29T06:13:19;9.20;99.90
16523;DHT22;19889;52.546;13.348;2024-03-29T06:16:14;9.20;99.90
16523;DHT22;19889;52.546;13.348;2024-03-29T06:18:59;9.30;99.90
16523;DHT22;19889;52.546;13.348;2024-03-29T06:21:28;9.30;99.90
16523;DHT22;19889;52.546;13.348;2024-03-29T06:23:56;9.40;99.90
16523;DHT22;19889;52.546;13.348;2024-03-29T06:26:23;9.10;99.90
16523;DHT22;19889;52.546;13.348;2024-03-29T06:28:50;9.50;99.90
16523;DHT22;19889;52.546;13.348;2024-03-29T06:31:17;9.50;99.90
16523;DHT22;19889;52.546;13.348;2024-03-29T06:33:44;9.60;99.90
16523;DHT22;19889;52.546;13.348;2024-03-29T06:36:11;9.60;99.90
16523;DHT22;19889;52.546;13.348;2024-03-29T06:38:40;9.70;99.90
16523;DHT22;19889;52.546;13.348;2024-03-29T06:41:07;9.70;99.90
16523;DHT22;19889;52.546;13.348;2024-03-29T06:43:34;9.80;99.90
16523;DHT22;19889;52.546;13.348;2024-03-29T06:46:01;9.80;99.90
16523;DHT22;19889;52.546;13.348;2024-03-29T06:48:29;9.90;99.90
16523;DHT22;19889;52.546;13.348;2024-03-29T06:50:57;9.90;99.90
16523;DHT22;19889;52.546;13.348;2024-03-29T06:53:24;10.00;99.90
16523;DHT22;19889;52.546;13.348;2024-03-29T06:55:55;10.10;99.90
16523;DHT22;19889;52.546;13.348;2024-03-29T06:58:22;10.20;99.90
16523;DHT22;19889;52.546;13.348;2024-03-29T07:00:49;10.30;99.90
16523;DHT22;19889;52.546;13.348;2024-03-29T07:03:16;10.40;99.90
16523;DHT22;19889;52.546;13.348;2024-03-29T07:05:44;10.50;99.90
16523;DHT22;19889;52.546;13.348;2024-03-29T07:08:11;10.50;99.90
16523;DHT22;19889;52.546;13.348;2024-03-29T07:10:38;10.60;99.90
16523;DHT22;19889;52.546;13.348;2024-03-29T07:13:07;10.70;99.90
16523;DHT22;19889;52.546;13.348;2024-03-29T07:15:35;10.80;99.90
16523;DHT22;19889;52.546;13.348;2024-03-29T07:18:02;10.90;99.90
16523;DHT22;19889;52.546;13.348;2024-03-29T07:20:29;10.90;99.90
16523;DHT22;19889;52.546;13.348;2024-03-29T07:22:56;11.00;99.90
16523;DHT22;19889;52.546;13.348;2024-03-29T07:25:24;10.90;99.90
16523;DHT22;19889;52.546;13.348;2024-03-29T07:27:52;10.90;99.90
16523;DHT22;19889;52.546;13.348;2024-03-29T07:30:20;10.90;99.90
16523;DHT22;19889;52.546;13.348;2024-03-29T07:32:47;10.90;99.90
16523;DHT22;19889;52.546;13.348;2024-03-29T07:35:14;10.90;99.90
16523;DHT22;19889;52.546;13.348;2024-03-29T07:37:42;10.90;99.90
16523;DHT22;19889;52.546;13.348;2024-03-29T07:40:13;11.00;99.90
16523;DHT22;19889;52.546;13.348;2024-03-29T07:42:40;11.00;99.90
16523;DHT22;19889;52.546;13.348;2024-03-29T07:45:08;11.00;99.90
16523;DHT22;19889;52.546;13.348;2024-03-29T07:47:36;11.00;99.90
16523;DHT22;19889;52.546;13.348;2024-03-29T07:50:04;11.00;99.90
16523;DHT22;19889;52.546;13.348;2024-03-29T07:52:32;11.00;99.90
16523;DHT22;19889;52.546;13.348;2024-03-29T07:54:59;11.00;99.90
16523;DHT22;19889;52.546;13.348;2024-03-29T07:57:26;11.00;99.90
16523;DHT22;19889;52.546;13.348;2024-03-29T07:59:53;11.10;99.90
16523;DHT22;19889;52.546;13.348;2024-03-29T08:02:20;11.10;99.90
16523;DHT22;19889;52.546;13.348;2024-03-29T08:04:52;11.10;99.90
16523;DHT22;19889;52.546;13.348;2024-03-29T08:07:19;11.20;99.90
16523;DHT22;19889;52.546;13.348;2024-03-29T08:09:46;11.20;99.90
16523;DHT22;19889;52.546;13.348;2024-03-29T08:12:13;11.20;99.90
16523;DHT22;19889;52.546;13.348;2024-03-29T08:14:40;11.20;99.90
16523;DHT22;19889;52.546;13.348;2024-03-29T08:17:08;11.20;99.90
16523;DHT22;19889;52.546;13.348;2024-03-29T08:19:35;11.20;99.90
16523;DHT22;19889;52.546;13.348;2024-03-29T08:22:04;11.20;99.90
16523;DHT22;19889;52.546;13.348;2024-03-29T08:24:31;11.20;99.90
16523;DHT22;19889;52.546;13.348;2024-03-29T08:26:58;11.30;99.90
16523;DHT22;19889;52.546;13.348;2024-03-29T08:29:27;11.30;99.90
16523;DHT22;19889;52.546;13.348;2024-03-29T08:31:54;11.30;99.90
16523;DHT22;19889;52.546;13.348;2024-03-29T08:34:22;11.30;99.90
16523;DHT22;19889;52.546;13.348;2024-03-29T08:36:50;11.30;99.90
16523;DHT22;19889;52.546;13.348;2024-03-29T08:39:18;11.40;99.90
16523;DHT22;19889;52.546;13.348;2024-03-29T08:41:46;11.40;99.90
16523;DHT22;19889;52.546;13.348;2024-03-29T08:44:13;11.50;99.90
16523;DHT22;19889;52.546;13.348;2024-03-29T08:46:40;11.50;99.90
16523;DHT22;19889;52.546;13.348;2024-03-29T08:49:07;11.50;99.90
16523;DHT22;19889;52.546;13.348;2024-03-29T08:51:34;11.60;99.90
16523;DHT22;19889;52.546;13.348;2024-03-29T08:54:02;11.70;99.90
16523;DHT22;19889;52.546;13.348;2024-03-29T08:56:35;11.70;99.90
16523;DHT22;19889;52.546;13.348;2024-03-29T08:59:03;11.80;99.90
16523;DHT22;19889;52.546;13.348;2024-03-29T09:01:33;11.80;99.90
16523;DHT22;19889;52.546;13.348;2024-03-29T09:04:01;11.90;99.90
16523;DHT22;19889;52.546;13.348;2024-03-29T09:06:29;12.00;99.90
16523;DHT22;19889;52.546;13.348;2024-03-29T09:08:56;12.10;99.90
16523;DHT22;19889;52.546;13.348;2024-03-29T09:11:23;12.20;99.90
16523;DHT22;19889;52.546;13.348;2024-03-29T09:13:52;12.40;99.90
16523;DHT22;19889;52.546;13.348;2024-03-29T09:16:19;12.50;99.90
16523;DHT22;19889;52.546;13.348;2024-03-29T09:18:47;12.50;99.90
16523;DHT22;19889;52.546;13.348;2024-03-29T09:21:14;12.50;99.90
16523;DHT22;19889;52.546;13.348;2024-03-29T09:23:41;12.60;99.90
16523;DHT22;19889;52.546;13.348;2024-03-29T09:26:08;12.70;99.90
16523;DHT22;19889;52.546;13.348;2024-03-29T09:28:35;12.80;99.90
16523;DHT22;19889;52.546;13.348;2024-03-29T09:31:04;12.90;99.90
16523;DHT22;19889;52.546;13.348;2024-03-29T09:33:31;12.90;99.90
16523;DHT22;19889;52.546;13.348;2024-03-29T09:35:58;13.00;99.90
16523;DHT22;19889;52.546;13.348;2024-03-29T09:38:26;13.00;99.90
16523;DHT22;19889;52.546;13.348;2024-03-29T09:41:03;13.00;99.90
16523;DHT22;19889;52.546;13.348;2024-03-29T09:43:33;13.00;99.90
16523;DHT22;19889;52.546;13.348;2024-03-29T09:46:01;13.00;99.90
16523;DHT22;19889;52.546;13.348;2024-03-29T09:48:30;13.00;99.90
16523;DHT22;19889;52.546;13.348;2024-03-29T09:51:03;13.00;99.90
16523;DHT22;19889;52.546;13.348;2024-03-29T09:53:32;13.10;99.90
16523;DHT22;19889;52.546;13.348;2024-03-29T09:56:00;13.10;99.90
16523;DHT22;19889;52.546;13.348;2024-03-29T09:58:28;13.20;99.90
16523;DHT22;19889;52.546;13.348;2024-03-29T10:00:55;13.20;99.90
16523;DHT22;19889;52.546;13.348;2024-03-29T10:03:24;13.20;99.90
16523;DHT22;19889;52.546;13.348;2024-03-29T10:05:56;13.20;99.90
16523;DHT22;19889;52.546;13.348;2024-03-29T10:08:25;13.20;99.90
16523;DHT22;19889;52.546;13.348;2024-03-29T10:10:53;13.20;99.90
16523;DHT22;19889;52.546;13.348;2024-03-29T10:13:20;13.30;99.90
16523;DHT22;19889;52.546;13.348;2024-03-29T10:15:49;13.40;99.90
16523;DHT22;19889;52.546;13.348;2024-03-29T10:18:17;13.40;99.90
16523;DHT22;19889;52.546;13.348;2024-03-29T10:20:45;13.40;99.90
16523;DHT22;19889;52.546;13.348;2024-03-29T10:23:14;13.40;99.90
16523;DHT22;19889;52.546;13.348;2024-03-29T10:25:43;13.40;99.90
16523;DHT22;19889;52.546;13.348;2024-03-29T10:28:11;13.40;99.90
16523;DHT22;19889;52.546;13.348;2024-03-29T10:30:38;13.30;99.90
16523;DHT22;19889;52.546;13.348;2024-03-29T10:33:05;13.30;99.90
16523;DHT22;19889;52.546;13.348;2024-03-29T10:35:32;13.20;99.90
16523;DHT22;19889;52.546;13.348;2024-03-29T10:38:02;13.10;99.90
16523;DHT22;19889;52.546;13.348;2024-03-29T10:40:31;13.10;99.90
16523;DHT22;19889;52.546;13.348;2024-03-29T10:42:58;13.10;99.90
16523;DHT22;19889;52.546;13.348;2024-03-29T10:45:30;13.00;99.90
16523;DHT22;19889;52.546;13.348;2024-03-29T10:47:58;13.00;99.90
16523;DHT22;19889;52.546;13.348;2024-03-29T10:50:27;13.00;99.90
16523;DHT22;19889;52.546;13.348;2024-03-29T10:52:56;13.00;99.90
16523;DHT22;19889;52.546;13.348;2024-03-29T10:55:28;13.10;99.90
16523;DHT22;19889;52.546;13.348;2024-03-29T10:57:57;13.10;99.90
16523;DHT22;19889;52.546;13.348;2024-03-29T11:00:25;13.10;99.90
16523;DHT22;19889;52.546;13.348;2024-03-29T11:02:59;13.20;99.90
16523;DHT22;19889;52.546;13.348;2024-03-29T11:05:30;13.20;99.90
16523;DHT22;19889;52.546;13.348;2024-03-29T11:08:01;13.20;99.90
16523;DHT22;19889;52.546;13.348;2024-03-29T11:10:33;13.30;99.90
16523;DHT22;19889;52.546;13.348;2024-03-29T11:13:12;13.30;99.90
16523;DHT22;19889;52.546;13.348;2024-03-29T11:15:41;13.40;99.90
16523;DHT22;19889;52.546;13.348;2024-03-29T11:18:10;13.50;99.90
16523;DHT22;19889;52.546;13.348;2024-03-29T11:20:37;13.50;99.90
16523;DHT22;19889;52.546;13.348;2024-03-29T11:23:10;13.60;99.90
16523;DHT22;19889;52.546;13.348;2024-03-29T11:25:42;13.60;99.90
16523;DHT22;19889;52.546;13.348;2024-03-29T11:28:13;13.60;99.90
16523;DHT22;19889;52.546;13.348;2024-03-29T11:30:45;13.60;99.90
16523;DHT22;19889;52.546;13.348;2024-03-29T11:33:26;13.60;99.90
16523;DHT22;19889;52.546;13.348;2024-03-29T11:35:54;13.60;99.90
16523;DHT22;19889;52.546;13.348;2024-03-29T11:38:21;13.70;99.90
16523;DHT22;19889;52.546;13.348;2024-03-29T11:41:01;13.70;99.90
16523;DHT22;19889;52.546;13.348;2024-03-29T11:43:30;13.70;99.90
16523;DHT22;19889;52.546;13.348;2024-03-29T11:45:58;13.70;99.90
16523;DHT22;19889;52.546;13.348;2024-03-29T11:48:27;13.60;99.90
16523;DHT22;19889;52.546;13.348;2024-03-29T11:50:55;13.60;99.90
16523;DHT22;19889;52.546;13.348;2024-03-29T11:53:22;13.50;99.90
16523;DHT22;19889;52.546;13.348;2024-03-29T11:55:49;13.50;99.90
16523;DHT22;19889;52.546;13.348;2024-03-29T11:58:20;13.50;99.90
16523;DHT22;19889;52.546;13.348;2024-03-29T12:00:49;13.60;99.90
16523;DHT22;19889;52.546;13.348;2024-03-29T12:03:18;13.60;99.90
16523;DHT22;19889;52.546;13.348;2024-03-29T12:05:46;13.60;99.90
16523;DHT22;19889;52.546;13.348;2024-03-29T12:08:14;13.60;99.90
16523;DHT22;19889;52.546;13.348;2024-03-29T12:10:41;13.60;99.90
16523;DHT22;19889;52.546;13.348;2024-03-29T12:13:09;13.60;99.90
16523;DHT22;19889;52.546;13.348;2024-03-29T12:15:37;13.60;99.90
16523;DHT22;19889;52.546;13.348;2024-03-29T12:18:06;13.60;99.90
16523;DHT22;19889;52.546;13.348;2024-03-29T12:20:33;13.60;99.90
16523;DHT22;19889;52.546;13.348;2024-03-29T12:23:03;13.60;99.90
16523;DHT22;19889;52.546;13.348;2024-03-29T12:25:33;13.60;99.90
16523;DHT22;19889;52.546;13.348;2024-03-29T12:28:01;13.50;99.90
16523;DHT22;19889;52.546;13.348;2024-03-29T12:30:28;13.50;99.90
16523;DHT22;19889;52.546;13.348;2024-03-29T12:33:03;13.50;99.90
16523;DHT22;19889;52.546;13.348;2024-03-29T12:35:33;13.60;99.90
16523;DHT22;19889;52.546;13.348;2024-03-29T12:38:02;13.70;99.90
16523;DHT22;19889;52.546;13.348;2024-03-29T12:40:30;13.80;99.90
16523;DHT22;19889;52.546;13.348;2024-03-29T12:43:03;13.90;99.90
16523;DHT22;19889;52.546;13.348;2024-03-29T12:45:30;14.00;99.90
16523;DHT22;19889;52.546;13.348;2024-03-29T12:47:58;14.20;99.90
16523;DHT22;19889;52.546;13.348;2024-03-29T12:50:26;14.30;99.90
16523;DHT22;19889;52.546;13.348;2024-03-29T12:52:57;14.40;99.90
16523;DHT22;19889;52.546;13.348;2024-03-29T12:55:25;14.50;99.90
16523;DHT22;19889;52.546;13.348;2024-03-29T12:57:56;14.50;99.90
16523;DHT22;19889;52.546;13.348;2024-03-29T13:00:26;14.60;99.90
16523;DHT22;19889;52.546;13.348;2024-03-29T13:02:54;14.60;99.90
16523;DHT22;19889;52.546;13.348;2024-03-29T13:05:21;14.70;99.90
16523;DHT22;19889;52.546;13.348;2024-03-29T13:07:48;14.80;99.90
16523;DHT22;19889;52.546;13.348;2024-03-29T13:10:17;14.80;99.90
16523;DHT22;19889;52.546;13.348;2024-03-29T13:12:47;14.80;99.90
16523;DHT22;19889;52.546;13.348;2024-03-29T13:15:17;14.90;99.90
16523;DHT22;19889;52.546;13.348;2024-03-29T13:17:45;14.80;99.90
16523;DHT22;19889;52.546;13.348;2024-03-29T13:20:14;14.80;99.90
16523;DHT22;19889;52.546;13.348;2024-03-29T13:22:42;14.80;99.90
16523;DHT22;19889;52.546;13.348;2024-03-29T13:25:11;14.70;99.90
16523;DHT22;19889;52.546;13.348;2024-03-29T13:27:40;14.70;99.90
16523;DHT22;19889;52.546;13.348;2024-03-29T13:30:09;14.70;99.90
16523;DHT22;19889;52.546;13.348;2024-03-29T13:32:38;14.70;99.90
16523;DHT22;19889;52.546;13.348;2024-03-29T13:35:06;14.70;99.90
16523;DHT22;19889;52.546;13.348;2024-03-29T13:37:35;14.80;99.90
16523;DHT22;19889;52.546;13.348;2024-03-29T13:40:03;14.90;99.90
16523;DHT22;19889;52.546;13.348;2024-03-29T13:42:31;15.00;99.90
16523;DHT22;19889;52.546;13.348;2024-03-29T13:45:00;15.00;99.90
16523;DHT22;19889;52.546;13.348;2024-03-29T13:47:27;15.10;99.90
16523;DHT22;19889;52.546;13.348;2024-03-29T13:49:55;15.20;99.90
16523;DHT22;19889;52.546;13.348;2024-03-29T13:52:24;15.20;99.90
16523;DHT22;19889;52.546;13.348;2024-03-29T13:54:53;15.30;99.90
16523;DHT22;19889;52.546;13.348;2024-03-29T13:57:21;15.40;99.90
16523;DHT22;19889;52.546;13.348;2024-03-29T13:59:48;15.50;99.90
16523;DHT22;19889;52.546;13.348;2024-03-29T14:02:18;15.50;99.90
16523;DHT22;19889;52.546;13.348;2024-03-29T14:04:46;15.50;99.90
16523;DHT22;19889;52.546;13.348;2024-03-29T14:07:16;15.50;99.90
16523;DHT22;19889;52.546;13.348;2024-03-29T14:09:44;15.60;99.90
16523;DHT22;19889;52.546;13.348;2024-03-29T14:12:11;15.60;99.90
16523;DHT22;19889;52.546;13.348;2024-03-29T14:14:39;15.50;99.90
16523;DHT22;19889;52.546;13.348;2024-03-29T14:17:07;15.50;99.90
16523;DHT22;19889;52.546;13.348;2024-03-29T14:19:36;15.60;99.90
16523;DHT22;19889;52.546;13.348;2024-03-29T14:22:04;15.70;99.90
16523;DHT22;19889;52.546;13.348;2024-03-29T14:24:32;15.70;99.90
16523;DHT22;19889;52.546;13.348;2024-03-29T14:27:01;15.70;99.90
16523;DHT22;19889;52.546;13.348;2024-03-29T14:29:29;15.80;99.90
16523;DHT22;19889;52.546;13.348;2024-03-29T14:31:56;15.70;99.90
16523;DHT22;19889;52.546;13.348;2024-03-29T14:34:23;15.70;99.90
16523;DHT22;19889;52.546;13.348;2024-03-29T14:36:52;15.70;99.90
16523;DHT22;19889;52.546;13.348;2024-03-29T14:39:19;15.60;99.90
16523;DHT22;19889;52.546;13.348;2024-03-29T14:41:46;15.70;99.90
16523;DHT22;19889;52.546;13.348;2024-03-29T14:44:16;15.60;99.90
16523;DHT22;19889;52.546;13.348;2024-03-29T14:46:43;15.60;99.90
16523;DHT22;19889;52.546;13.348;2024-03-29T14:49:10;15.60;99.90
16523;DHT22;19889;52.546;13.348;2024-03-29T14:51:38;15.60;99.90
16523;DHT22;19889;52.546;13.348;2024-03-29T14:54:06;15.60;99.90
16523;DHT22;19889;52.546;13.348;2024-03-29T14:56:34;15.60;99.90
16523;DHT22;19889;52.546;13.348;2024-03-29T14:59:02;15.60;99.90
16523;DHT22;19889;52.546;13.348;2024-03-29T15:01:31;15.60;99.90
16523;DHT22;19889;52.546;13.348;2024-03-29T15:03:58;15.60;99.90
16523;DHT22;19889;52.546;13.348;2024-03-29T15:06:26;15.60;99.90
16523;DHT22;19889;52.546;13.348;2024-03-29T15:08:53;15.60;99.90
16523;DHT22;19889;52.546;13.348;2024-03-29T15:11:24;16.90;99.90
16523;DHT22;19889;52.546;13.348;2024-03-29T15:13:52;15.60;99.90
16523;DHT22;19889;52.546;13.348;2024-03-29T15:16:19;15.60;99.90
16523;DHT22;19889;52.546;13.348;2024-03-29T15:18:48;15.70;99.90
16523;DHT22;19889;52.546;13.348;2024-03-29T15:21:15;15.70;99.90
16523;DHT22;19889;52.546;13.348;2024-03-29T15:23:43;15.60;99.90
16523;DHT22;19889;52.546;13.348;2024-03-29T15:26:11;15.60;99.90
16523;DHT22;19889;52.546;13.348;2024-03-29T15:28:39;15.60;99.90